sensor_id;sensor_type;location;lat;lon;timestamp;P1;durP1;ratioP1;P2;durP2;ratioP2
16998;SDS011;10211;49.476;11.010;2023-01-10T00:01:41;1.77;;;1.30;;
16998;SDS011;10211;49.476;11.010;2023-01-10T00:04:08;3.97;;;1.47;;
16998;SDS011;10211;49.476;11.010;2023-01-10T00:06:38;2.60;;;1.13;;
16998;SDS011;10211;49.476;11.010;2023-01-10T00:09:05;2.03;;;1.20;;
16998;SDS011;10211;49.476;11.010;2023-01-10T00:11:32;1.93;;;1.40;;
16998;SDS011;10211;49.476;11.010;2023-01-10T00:14:16;2.90;;;1.30;;
16998;SDS011;10211;49.476;11.010;2023-01-10T00:16:42;3.73;;;1.60;;
16998;SDS011;10211;49.476;11.010;2023-01-10T00:19:09;1.40;;;1.30;;
16998;SDS011;10211;49.476;11.010;2023-01-10T00:21:44;2.30;;;1.50;;
16998;SDS011;10211;49.476;11.010;2023-01-10T00:24:11;4.60;;;1.60;;
16998;SDS011;10211;49.476;11.010;2023-01-10T00:26:43;2.00;;;1.47;;
16998;SDS011;10211;49.476;11.010;2023-01-10T00:29:12;1.93;;;1.10;;
16998;SDS011;10211;49.476;11.010;2023-01-10T00:31:40;4.70;;;1.80;;
16998;SDS011;10211;49.476;11.010;2023-01-10T00:34:06;1.87;;;1.37;;
16998;SDS011;10211;49.476;11.010;2023-01-10T00:36:33;2.10;;;1.50;;
16998;SDS011;10211;49.476;11.010;2023-01-10T00:39:01;1.87;;;1.50;;
16998;SDS011;10211;49.476;11.010;2023-01-10T00:41:36;1.47;;;1.27;;
16998;SDS011;10211;49.476;11.010;2023-01-10T00:44:21;1.67;;;1.50;;
16998;SDS011;10211;49.476;11.010;2023-01-10T00:46:47;2.93;;;1.57;;
16998;SDS011;10211;49.476;11.010;2023-01-10T00:49:14;2.00;;;1.30;;
16998;SDS011;10211;49.476;11.010;2023-01-10T00:51:41;3.37;;;1.30;;
16998;SDS011;10211;49.476;11.010;2023-01-10T00:54:10;2.03;;;1.40;;
16998;SDS011;10211;49.476;11.010;2023-01-10T00:56:38;1.80;;;1.67;;
16998;SDS011;10211;49.476;11.010;2023-01-10T00:59:05;2.23;;;1.50;;
16998;SDS011;10211;49.476;11.010;2023-01-10T01:01:32;4.70;;;1.77;;
16998;SDS011;10211;49.476;11.010;2023-01-10T01:03:59;2.43;;;1.53;;
16998;SDS011;10211;49.476;11.010;2023-01-10T01:06:26;2.30;;;1.57;;
16998;SDS011;10211;49.476;11.010;2023-01-10T01:08:53;1.83;;;1.60;;
16998;SDS011;10211;49.476;11.010;2023-01-10T01:11:21;2.63;;;1.50;;
16998;SDS011;10211;49.476;11.010;2023-01-10T01:13:47;3.03;;;1.40;;
16998;SDS011;10211;49.476;11.010;2023-01-10T01:16:15;1.73;;;1.57;;
16998;SDS011;10211;49.476;11.010;2023-01-10T01:18:42;1.33;;;1.23;;
16998;SDS011;10211;49.476;11.010;2023-01-10T01:21:09;2.40;;;1.53;;
16998;SDS011;10211;49.476;11.010;2023-01-10T01:23:36;1.70;;;1.40;;
16998;SDS011;10211;49.476;11.010;2023-01-10T01:26:03;3.50;;;1.37;;
16998;SDS011;10211;49.476;11.010;2023-01-10T01:28:32;1.70;;;1.60;;
16998;SDS011;10211;49.476;11.010;2023-01-10T01:30:59;1.90;;;1.33;;
16998;SDS011;10211;49.476;11.010;2023-01-10T01:33:32;2.60;;;1.57;;
16998;SDS011;10211;49.476;11.010;2023-01-10T01:35:58;2.77;;;1.30;;
16998;SDS011;10211;49.476;11.010;2023-01-10T01:38:25;1.70;;;1.13;;
16998;SDS011;10211;49.476;11.010;2023-01-10T01:40:52;2.10;;;1.30;;
16998;SDS011;10211;49.476;11.010;2023-01-10T01:43:21;1.53;;;1.20;;
16998;SDS011;10211;49.476;11.010;2023-01-10T01:45:50;1.30;;;1.10;;
16998;SDS011;10211;49.476;11.010;2023-01-10T01:48:19;3.43;;;1.67;;
16998;SDS011;10211;49.476;11.010;2023-01-10T01:50:54;1.50;;;1.20;;
16998;SDS011;10211;49.476;11.010;2023-01-10T01:53:30;2.47;;;1.33;;
16998;SDS011;10211;49.476;11.010;2023-01-10T01:56:00;2.00;;;1.13;;
16998;SDS011;10211;49.476;11.010;2023-01-10T01:58:33;2.27;;;1.23;;
16998;SDS011;10211;49.476;11.010;2023-01-10T02:01:06;1.10;;;0.97;;
16998;SDS011;10211;49.476;11.010;2023-01-10T02:03:33;0.90;;;0.90;;
16998;SDS011;10211;49.476;11.010;2023-01-10T02:06:00;1.20;;;1.10;;
16998;SDS011;10211;49.476;11.010;2023-01-10T02:08:28;1.97;;;1.13;;
16998;SDS011;10211;49.476;11.010;2023-01-10T02:10:57;0.93;;;0.93;;
16998;SDS011;10211;49.476;11.010;2023-01-10T02:13:30;1.23;;;1.00;;
16998;SDS011;10211;49.476;11.010;2023-01-10T02:15:58;1.27;;;1.17;;
16998;SDS011;10211;49.476;11.010;2023-01-10T02:18:27;1.27;;;1.17;;
16998;SDS011;10211;49.476;11.010;2023-01-10T02:21:01;1.03;;;0.90;;
16998;SDS011;10211;49.476;11.010;2023-01-10T02:23:59;1.87;;;1.00;;
16998;SDS011;10211;49.476;11.010;2023-01-10T02:32:55;1.60;;;1.33;;
16998;SDS011;10211;49.476;11.010;2023-01-10T02:38:41;1.50;;;1.40;;
16998;SDS011;10211;49.476;11.010;2023-01-10T02:41:18;1.87;;;1.00;;
16998;SDS011;10211;49.476;11.010;2023-01-10T02:43:55;1.33;;;1.23;;
16998;SDS011;10211;49.476;11.010;2023-01-10T02:46:28;1.40;;;1.30;;
16998;SDS011;10211;49.476;11.010;2023-01-10T02:48:57;1.90;;;1.50;;
16998;SDS011;10211;49.476;11.010;2023-01-10T02:51:24;1.77;;;1.47;;
16998;SDS011;10211;49.476;11.010;2023-01-10T02:53:53;1.50;;;1.40;;
16998;SDS011;10211;49.476;11.010;2023-01-10T02:56:29;1.53;;;1.43;;
16998;SDS011;10211;49.476;11.010;2023-01-10T02:59:32;1.90;;;1.70;;
16998;SDS011;10211;49.476;11.010;2023-01-10T03:02:17;1.87;;;1.77;;
16998;SDS011;10211;49.476;11.010;2023-01-10T03:04:53;2.13;;;1.83;;
16998;SDS011;10211;49.476;11.010;2023-01-10T03:07:30;2.33;;;1.77;;
16998;SDS011;10211;49.476;11.010;2023-01-10T03:10:03;2.40;;;1.67;;
16998;SDS011;10211;49.476;11.010;2023-01-10T03:12:34;1.70;;;1.60;;
16998;SDS011;10211;49.476;11.010;2023-01-10T03:15:05;4.87;;;2.10;;
16998;SDS011;10211;49.476;11.010;2023-01-10T03:17:33;3.10;;;2.80;;
16998;SDS011;10211;49.476;11.010;2023-01-10T03:20:04;3.17;;;2.33;;
16998;SDS011;10211;49.476;11.010;2023-01-10T03:22:33;2.40;;;2.20;;
16998;SDS011;10211;49.476;11.010;2023-01-10T03:25:02;2.37;;;2.17;;
16998;SDS011;10211;49.476;11.010;2023-01-10T03:27:33;3.70;;;2.50;;
16998;SDS011;10211;49.476;11.010;2023-01-10T03:30:05;2.60;;;2.40;;
16998;SDS011;10211;49.476;11.010;2023-01-10T03:32:41;4.50;;;2.87;;
16998;SDS011;10211;49.476;11.010;2023-01-10T03:35:10;5.97;;;2.73;;
16998;SDS011;10211;49.476;11.010;2023-01-10T03:37:41;2.27;;;2.10;;
16998;SDS011;10211;49.476;11.010;2023-01-10T03:43:14;2.47;;;2.27;;
16998;SDS011;10211;49.476;11.010;2023-01-10T03:46:04;2.83;;;2.37;;
16998;SDS011;10211;49.476;11.010;2023-01-10T03:48:37;4.17;;;2.47;;
16998;SDS011;10211;49.476;11.010;2023-01-10T03:51:07;3.60;;;2.63;;
16998;SDS011;10211;49.476;11.010;2023-01-10T03:53:38;3.53;;;3.03;;
16998;SDS011;10211;49.476;11.010;2023-01-10T03:56:05;2.53;;;2.33;;
16998;SDS011;10211;49.476;11.010;2023-01-10T03:58:32;2.67;;;2.47;;
16998;SDS011;10211;49.476;11.010;2023-01-10T04:01:00;3.53;;;2.40;;
16998;SDS011;10211;49.476;11.010;2023-01-10T04:03:26;2.50;;;2.30;;
16998;SDS011;10211;49.476;11.010;2023-01-10T04:05:53;2.90;;;2.13;;
16998;SDS011;10211;49.476;11.010;2023-01-10T04:08:21;2.50;;;2.10;;
16998;SDS011;10211;49.476;11.010;2023-01-10T04:10:49;2.60;;;2.40;;
16998;SDS011;10211;49.476;11.010;2023-01-10T04:13:16;3.33;;;2.17;;
16998;SDS011;10211;49.476;11.010;2023-01-10T04:15:42;5.10;;;2.93;;
16998;SDS011;10211;49.476;11.010;2023-01-10T04:18:09;3.20;;;2.80;;
16998;SDS011;10211;49.476;11.010;2023-01-10T04:20:37;3.50;;;2.87;;
16998;SDS011;10211;49.476;11.010;2023-01-10T04:23:03;3.80;;;2.50;;
16998;SDS011;10211;49.476;11.010;2023-01-10T04:25:31;2.90;;;2.70;;
16998;SDS011;10211;49.476;11.010;2023-01-10T04:27:58;3.27;;;2.90;;
16998;SDS011;10211;49.476;11.010;2023-01-10T04:30:25;3.57;;;3.27;;
16998;SDS011;10211;49.476;11.010;2023-01-10T04:32:51;4.83;;;3.10;;
16998;SDS011;10211;49.476;11.010;2023-01-10T04:35:18;4.77;;;3.40;;
16998;SDS011;10211;49.476;11.010;2023-01-10T04:37:45;7.67;;;2.90;;
16998;SDS011;10211;49.476;11.010;2023-01-10T04:40:11;3.47;;;2.93;;
16998;SDS011;10211;49.476;11.010;2023-01-10T04:42:42;4.17;;;3.00;;
16998;SDS011;10211;49.476;11.010;2023-01-10T04:45:09;4.77;;;2.93;;
16998;SDS011;10211;49.476;11.010;2023-01-10T04:47:37;4.83;;;3.20;;
16998;SDS011;10211;49.476;11.010;2023-01-10T04:50:04;4.57;;;3.20;;
16998;SDS011;10211;49.476;11.010;2023-01-10T04:52:31;3.60;;;3.30;;
16998;SDS011;10211;49.476;11.010;2023-01-10T04:54:58;4.13;;;2.63;;
16998;SDS011;10211;49.476;11.010;2023-01-10T04:57:27;3.30;;;2.80;;
16998;SDS011;10211;49.476;11.010;2023-01-10T04:59:55;4.67;;;3.07;;
16998;SDS011;10211;49.476;11.010;2023-01-10T05:02:21;3.67;;;2.80;;
16998;SDS011;10211;49.476;11.010;2023-01-10T05:04:48;2.97;;;2.57;;
16998;SDS011;10211;49.476;11.010;2023-01-10T05:07:15;3.17;;;2.87;;
16998;SDS011;10211;49.476;11.010;2023-01-10T05:09:41;4.57;;;3.17;;
16998;SDS011;10211;49.476;11.010;2023-01-10T05:12:09;4.83;;;3.30;;
16998;SDS011;10211;49.476;11.010;2023-01-10T05:14:35;5.63;;;5.07;;
16998;SDS011;10211;49.476;11.010;2023-01-10T05:17:03;3.80;;;3.33;;
16998;SDS011;10211;49.476;11.010;2023-01-10T05:19:30;7.17;;;3.23;;
16998;SDS011;10211;49.476;11.010;2023-01-10T05:21:57;4.67;;;2.70;;
16998;SDS011;10211;49.476;11.010;2023-01-10T05:24:24;5.23;;;3.17;;
16998;SDS011;10211;49.476;11.010;2023-01-10T05:26:50;4.60;;;3.10;;
16998;SDS011;10211;49.476;11.010;2023-01-10T05:29:17;5.87;;;3.03;;
16998;SDS011;10211;49.476;11.010;2023-01-10T05:31:44;3.40;;;2.50;;
16998;SDS011;10211;49.476;11.010;2023-01-10T05:34:12;7.70;;;3.47;;
16998;SDS011;10211;49.476;11.010;2023-01-10T05:36:39;3.77;;;3.37;;
16998;SDS011;10211;49.476;11.010;2023-01-10T05:39:05;7.37;;;3.10;;
16998;SDS011;10211;49.476;11.010;2023-01-10T05:41:32;3.23;;;2.93;;
16998;SDS011;10211;49.476;11.010;2023-01-10T05:43:59;5.37;;;2.93;;
16998;SDS011;10211;49.476;11.010;2023-01-10T05:46:26;8.13;;;3.40;;
16998;SDS011;10211;49.476;11.010;2023-01-10T05:48:52;7.13;;;3.13;;
16998;SDS011;10211;49.476;11.010;2023-01-10T05:51:20;4.53;;;3.30;;
16998;SDS011;10211;49.476;11.010;2023-01-10T05:53:47;5.47;;;2.80;;
16998;SDS011;10211;49.476;11.010;2023-01-10T05:56:14;8.30;;;3.47;;
16998;SDS011;10211;49.476;11.010;2023-01-10T05:58:40;6.83;;;3.70;;
16998;SDS011;10211;49.476;11.010;2023-01-10T06:01:07;5.13;;;3.17;;
16998;SDS011;10211;49.476;11.010;2023-01-10T06:03:34;4.00;;;2.93;;
16998;SDS011;10211;49.476;11.010;2023-01-10T06:06:01;4.73;;;3.20;;
16998;SDS011;10211;49.476;11.010;2023-01-10T06:08:29;3.80;;;3.00;;
16998;SDS011;10211;49.476;11.010;2023-01-10T06:10:56;3.10;;;2.60;;
16998;SDS011;10211;49.476;11.010;2023-01-10T06:13:23;3.53;;;3.07;;
16998;SDS011;10211;49.476;11.010;2023-01-10T06:15:49;2.97;;;2.47;;
16998;SDS011;10211;49.476;11.010;2023-01-10T06:18:17;6.43;;;3.50;;
16998;SDS011;10211;49.476;11.010;2023-01-10T06:20:43;5.80;;;4.33;;
16998;SDS011;10211;49.476;11.010;2023-01-10T06:23:10;3.10;;;2.80;;
16998;SDS011;10211;49.476;11.010;2023-01-10T06:25:39;6.67;;;3.23;;
16998;SDS011;10211;49.476;11.010;2023-01-10T06:28:07;3.90;;;2.73;;
16998;SDS011;10211;49.476;11.010;2023-01-10T06:30:34;4.13;;;3.20;;
16998;SDS011;10211;49.476;11.010;2023-01-10T06:33:01;7.20;;;3.07;;
16998;SDS011;10211;49.476;11.010;2023-01-10T06:35:31;2.83;;;2.50;;
16998;SDS011;10211;49.476;11.010;2023-01-10T06:37:58;3.97;;;3.20;;
16998;SDS011;10211;49.476;11.010;2023-01-10T06:40:26;3.63;;;2.77;;
16998;SDS011;10211;49.476;11.010;2023-01-10T06:42:55;5.73;;;3.07;;
16998;SDS011;10211;49.476;11.010;2023-01-10T06:45:23;3.40;;;3.10;;
16998;SDS011;10211;49.476;11.010;2023-01-10T06:47:49;6.37;;;3.57;;
16998;SDS011;10211;49.476;11.010;2023-01-10T06:50:16;6.67;;;3.00;;
16998;SDS011;10211;49.476;11.010;2023-01-10T06:52:43;4.17;;;3.03;;
16998;SDS011;10211;49.476;11.010;2023-01-10T06:55:09;7.33;;;3.30;;
16998;SDS011;10211;49.476;11.010;2023-01-10T06:57:36;6.40;;;3.53;;
16998;SDS011;10211;49.476;11.010;2023-01-10T07:00:05;8.63;;;2.70;;
16998;SDS011;10211;49.476;11.010;2023-01-10T07:02:35;7.93;;;3.20;;
16998;SDS011;10211;49.476;11.010;2023-01-10T07:05:02;6.17;;;2.93;;
16998;SDS011;10211;49.476;11.010;2023-01-10T07:07:29;6.83;;;3.10;;
16998;SDS011;10211;49.476;11.010;2023-01-10T07:09:56;4.83;;;2.80;;
16998;SDS011;10211;49.476;11.010;2023-01-10T07:12:23;7.87;;;3.20;;
16998;SDS011;10211;49.476;11.010;2023-01-10T07:14:50;8.73;;;3.43;;
16998;SDS011;10211;49.476;11.010;2023-01-10T07:17:18;13.20;;;2.90;;
16998;SDS011;10211;49.476;11.010;2023-01-10T07:19:45;3.37;;;2.37;;
16998;SDS011;10211;49.476;11.010;2023-01-10T07:22:11;6.80;;;2.60;;
16998;SDS011;10211;49.476;11.010;2023-01-10T07:24:38;5.20;;;2.50;;
16998;SDS011;10211;49.476;11.010;2023-01-10T07:27:05;6.33;;;2.93;;
16998;SDS011;10211;49.476;11.010;2023-01-10T07:29:31;7.67;;;3.00;;
16998;SDS011;10211;49.476;11.010;2023-01-10T07:31:58;5.77;;;2.60;;
16998;SDS011;10211;49.476;11.010;2023-01-10T07:34:26;6.03;;;2.63;;
16998;SDS011;10211;49.476;11.010;2023-01-10T07:36:53;5.93;;;2.60;;
16998;SDS011;10211;49.476;11.010;2023-01-10T07:39:19;7.80;;;3.03;;
16998;SDS011;10211;49.476;11.010;2023-01-10T07:41:46;5.10;;;2.20;;
16998;SDS011;10211;49.476;11.010;2023-01-10T07:44:13;5.40;;;2.13;;
16998;SDS011;10211;49.476;11.010;2023-01-10T07:46:40;7.27;;;2.40;;
16998;SDS011;10211;49.476;11.010;2023-01-10T07:49:07;5.50;;;1.87;;
16998;SDS011;10211;49.476;11.010;2023-01-10T07:51:35;3.20;;;2.23;;
16998;SDS011;10211;49.476;11.010;2023-01-10T07:54:02;4.00;;;2.23;;
16998;SDS011;10211;49.476;11.010;2023-01-10T07:56:29;5.87;;;1.80;;
16998;SDS011;10211;49.476;11.010;2023-01-10T07:58:55;6.37;;;2.10;;
16998;SDS011;10211;49.476;11.010;2023-01-10T08:01:22;6.23;;;1.90;;
16998;SDS011;10211;49.476;11.010;2023-01-10T08:03:50;4.53;;;2.00;;
16998;SDS011;10211;49.476;11.010;2023-01-10T08:06:16;6.27;;;2.00;;
16998;SDS011;10211;49.476;11.010;2023-01-10T08:08:44;5.37;;;2.30;;
16998;SDS011;10211;49.476;11.010;2023-01-10T08:11:11;6.50;;;1.97;;
16998;SDS011;10211;49.476;11.010;2023-01-10T08:13:38;6.13;;;2.30;;
16998;SDS011;10211;49.476;11.010;2023-01-10T08:16:05;5.20;;;2.07;;
16998;SDS011;10211;49.476;11.010;2023-01-10T08:18:32;6.60;;;2.23;;
16998;SDS011;10211;49.476;11.010;2023-01-10T08:20:59;4.20;;;1.60;;
16998;SDS011;10211;49.476;11.010;2023-01-10T08:23:27;7.07;;;2.30;;
16998;SDS011;10211;49.476;11.010;2023-01-10T08:25:56;3.73;;;2.07;;
16998;SDS011;10211;49.476;11.010;2023-01-10T08:28:23;5.70;;;2.63;;
16998;SDS011;10211;49.476;11.010;2023-01-10T08:30:50;2.90;;;1.97;;
16998;SDS011;10211;49.476;11.010;2023-01-10T08:33:19;4.03;;;2.00;;
16998;SDS011;10211;49.476;11.010;2023-01-10T08:35:46;4.43;;;1.67;;
16998;SDS011;10211;49.476;11.010;2023-01-10T08:38:13;3.90;;;1.90;;
16998;SDS011;10211;49.476;11.010;2023-01-10T08:40:40;3.23;;;2.17;;
16998;SDS011;10211;49.476;11.010;2023-01-10T08:43:08;6.40;;;2.07;;
16998;SDS011;10211;49.476;11.010;2023-01-10T08:45:37;6.63;;;2.10;;
16998;SDS011;10211;49.476;11.010;2023-01-10T08:48:04;2.33;;;1.83;;
16998;SDS011;10211;49.476;11.010;2023-01-10T08:50:33;7.40;;;2.60;;
16998;SDS011;10211;49.476;11.010;2023-01-10T08:53:00;7.33;;;2.00;;
16998;SDS011;10211;49.476;11.010;2023-01-10T08:55:27;8.33;;;2.50;;
16998;SDS011;10211;49.476;11.010;2023-01-10T08:57:56;5.47;;;2.47;;
16998;SDS011;10211;49.476;11.010;2023-01-10T09:00:25;4.17;;;1.90;;
16998;SDS011;10211;49.476;11.010;2023-01-10T09:02:52;11.10;;;2.67;;
16998;SDS011;10211;49.476;11.010;2023-01-10T09:05:19;7.37;;;2.57;;
16998;SDS011;10211;49.476;11.010;2023-01-10T09:07:45;4.30;;;2.10;;
16998;SDS011;10211;49.476;11.010;2023-01-10T09:10:12;6.13;;;2.03;;
16998;SDS011;10211;49.476;11.010;2023-01-10T09:12:39;6.20;;;2.40;;
16998;SDS011;10211;49.476;11.010;2023-01-10T09:15:21;2.03;;;1.80;;
16998;SDS011;10211;49.476;11.010;2023-01-10T09:17:50;5.83;;;2.03;;
16998;SDS011;10211;49.476;11.010;2023-01-10T09:20:18;8.80;;;3.07;;
16998;SDS011;10211;49.476;11.010;2023-01-10T09:22:45;5.60;;;2.47;;
16998;SDS011;10211;49.476;11.010;2023-01-10T09:25:12;4.67;;;2.30;;
16998;SDS011;10211;49.476;11.010;2023-01-10T09:27:38;4.27;;;2.20;;
16998;SDS011;10211;49.476;11.010;2023-01-10T09:30:06;7.13;;;2.60;;
16998;SDS011;10211;49.476;11.010;2023-01-10T09:32:33;4.43;;;2.40;;
16998;SDS011;10211;49.476;11.010;2023-01-10T09:35:01;5.93;;;1.60;;
16998;SDS011;10211;49.476;11.010;2023-01-10T09:37:28;3.83;;;2.20;;
16998;SDS011;10211;49.476;11.010;2023-01-10T09:39:57;10.13;;;2.03;;
16998;SDS011;10211;49.476;11.010;2023-01-10T09:42:26;5.37;;;1.73;;
16998;SDS011;10211;49.476;11.010;2023-01-10T09:45:05;9.20;;;1.67;;
16998;SDS011;10211;49.476;11.010;2023-01-10T09:47:40;4.00;;;2.03;;
16998;SDS011;10211;49.476;11.010;2023-01-10T09:50:18;4.03;;;1.90;;
16998;SDS011;10211;49.476;11.010;2023-01-10T09:52:50;6.97;;;1.90;;
16998;SDS011;10211;49.476;11.010;2023-01-10T09:55:22;8.70;;;2.40;;
16998;SDS011;10211;49.476;11.010;2023-01-10T09:57:52;9.10;;;2.13;;
16998;SDS011;10211;49.476;11.010;2023-01-10T10:00:22;3.77;;;1.17;;
16998;SDS011;10211;49.476;11.010;2023-01-10T10:02:56;5.10;;;1.47;;
16998;SDS011;10211;49.476;11.010;2023-01-10T10:05:24;5.60;;;1.70;;
16998;SDS011;10211;49.476;11.010;2023-01-10T10:07:53;8.93;;;2.00;;
16998;SDS011;10211;49.476;11.010;2023-01-10T10:10:23;4.90;;;1.87;;
16998;SDS011;10211;49.476;11.010;2023-01-10T10:12:54;5.10;;;1.77;;
16998;SDS011;10211;49.476;11.010;2023-01-10T10:15:36;3.70;;;1.67;;
16998;SDS011;10211;49.476;11.010;2023-01-10T10:18:09;4.93;;;1.20;;
16998;SDS011;10211;49.476;11.010;2023-01-10T10:20:49;4.70;;;1.40;;
16998;SDS011;10211;49.476;11.010;2023-01-10T10:23:37;6.73;;;2.13;;
16998;SDS011;10211;49.476;11.010;2023-01-10T10:26:16;3.97;;;1.50;;
16998;SDS011;10211;49.476;11.010;2023-01-10T10:29:04;3.30;;;1.50;;
16998;SDS011;10211;49.476;11.010;2023-01-10T10:31:55;2.50;;;1.20;;
16998;SDS011;10211;49.476;11.010;2023-01-10T10:34:36;4.93;;;1.57;;
16998;SDS011;10211;49.476;11.010;2023-01-10T10:37:09;7.20;;;1.87;;
16998;SDS011;10211;49.476;11.010;2023-01-10T10:39:43;4.17;;;1.50;;
16998;SDS011;10211;49.476;11.010;2023-01-10T10:42:14;4.07;;;1.43;;
16998;SDS011;10211;49.476;11.010;2023-01-10T10:44:43;7.07;;;1.70;;
16998;SDS011;10211;49.476;11.010;2023-01-10T10:47:17;2.53;;;1.73;;
16998;SDS011;10211;49.476;11.010;2023-01-10T10:49:47;5.30;;;1.43;;
16998;SDS011;10211;49.476;11.010;2023-01-10T10:52:21;3.57;;;1.40;;
16998;SDS011;10211;49.476;11.010;2023-01-10T10:54:49;6.43;;;1.70;;
16998;SDS011;10211;49.476;11.010;2023-01-10T10:57:18;6.20;;;1.60;;
16998;SDS011;10211;49.476;11.010;2023-01-10T10:59:49;8.30;;;2.27;;
16998;SDS011;10211;49.476;11.010;2023-01-10T11:02:20;4.07;;;1.30;;
16998;SDS011;10211;49.476;11.010;2023-01-10T11:04:50;9.20;;;2.30;;
16998;SDS011;10211;49.476;11.010;2023-01-10T11:07:21;7.00;;;1.93;;
16998;SDS011;10211;49.476;11.010;2023-01-10T11:09:49;3.70;;;2.23;;
16998;SDS011;10211;49.476;11.010;2023-01-10T11:12:29;3.43;;;1.70;;
16998;SDS011;10211;49.476;11.010;2023-01-10T11:14:58;4.37;;;1.50;;
16998;SDS011;10211;49.476;11.010;2023-01-10T11:17:26;4.00;;;1.50;;
16998;SDS011;10211;49.476;11.010;2023-01-10T11:19:57;5.67;;;1.83;;
16998;SDS011;10211;49.476;11.010;2023-01-10T11:22:26;4.03;;;1.63;;
16998;SDS011;10211;49.476;11.010;2023-01-10T11:24:55;4.67;;;1.43;;
16998;SDS011;10211;49.476;11.010;2023-01-10T11:27:25;3.90;;;1.50;;
16998;SDS011;10211;49.476;11.010;2023-01-10T11:29:55;2.50;;;1.20;;
16998;SDS011;10211;49.476;11.010;2023-01-10T11:32:28;6.63;;;1.13;;
16998;SDS011;10211;49.476;11.010;2023-01-10T11:34:58;6.20;;;1.60;;
16998;SDS011;10211;49.476;11.010;2023-01-10T11:37:29;3.33;;;1.40;;
16998;SDS011;10211;49.476;11.010;2023-01-10T11:40:14;4.43;;;1.60;;
16998;SDS011;10211;49.476;11.010;2023-01-10T11:42:43;8.07;;;1.70;;
16998;SDS011;10211;49.476;11.010;2023-01-10T11:45:18;3.57;;;1.53;;
16998;SDS011;10211;49.476;11.010;2023-01-10T11:47:49;4.10;;;1.33;;
16998;SDS011;10211;49.476;11.010;2023-01-10T11:50:19;4.03;;;1.73;;
16998;SDS011;10211;49.476;11.010;2023-01-10T11:52:48;4.87;;;1.33;;
16998;SDS011;10211;49.476;11.010;2023-01-10T11:55:17;4.73;;;1.70;;
16998;SDS011;10211;49.476;11.010;2023-01-10T11:57:45;4.70;;;1.23;;
16998;SDS011;10211;49.476;11.010;2023-01-10T12:00:20;8.27;;;2.00;;
16998;SDS011;10211;49.476;11.010;2023-01-10T12:02:47;6.00;;;1.33;;
16998;SDS011;10211;49.476;11.010;2023-01-10T12:05:17;6.50;;;1.60;;
16998;SDS011;10211;49.476;11.010;2023-01-10T12:07:53;5.13;;;1.30;;
16998;SDS011;10211;49.476;11.010;2023-01-10T12:10:21;7.93;;;1.83;;
16998;SDS011;10211;49.476;11.010;2023-01-10T12:12:53;6.10;;;1.40;;
16998;SDS011;10211;49.476;11.010;2023-01-10T12:15:22;3.93;;;1.43;;
16998;SDS011;10211;49.476;11.010;2023-01-10T12:17:51;3.47;;;1.10;;
16998;SDS011;10211;49.476;11.010;2023-01-10T12:20:20;12.23;;;2.00;;
16998;SDS011;10211;49.476;11.010;2023-01-10T12:22:48;4.13;;;1.50;;
16998;SDS011;10211;49.476;11.010;2023-01-10T12:25:22;3.67;;;1.37;;
16998;SDS011;10211;49.476;11.010;2023-01-10T12:27:53;6.03;;;1.40;;
16998;SDS011;10211;49.476;11.010;2023-01-10T12:30:23;4.10;;;1.57;;
16998;SDS011;10211;49.476;11.010;2023-01-10T12:32:55;5.93;;;1.57;;
16998;SDS011;10211;49.476;11.010;2023-01-10T12:35:24;5.90;;;1.50;;
16998;SDS011;10211;49.476;11.010;2023-01-10T12:38:02;3.03;;;1.53;;
16998;SDS011;10211;49.476;11.010;2023-01-10T12:40:39;20.90;;;2.67;;
16998;SDS011;10211;49.476;11.010;2023-01-10T12:43:11;4.63;;;1.50;;
16998;SDS011;10211;49.476;11.010;2023-01-10T12:46:01;3.87;;;1.33;;
16998;SDS011;10211;49.476;11.010;2023-01-10T12:48:37;4.60;;;2.00;;
16998;SDS011;10211;49.476;11.010;2023-01-10T12:51:13;4.57;;;1.40;;
16998;SDS011;10211;49.476;11.010;2023-01-10T12:53:45;4.07;;;1.53;;
16998;SDS011;10211;49.476;11.010;2023-01-10T12:56:17;6.23;;;1.27;;
16998;SDS011;10211;49.476;11.010;2023-01-10T12:58:45;4.87;;;1.50;;
16998;SDS011;10211;49.476;11.010;2023-01-10T13:01:16;4.23;;;1.30;;
16998;SDS011;10211;49.476;11.010;2023-01-10T13:03:48;4.97;;;1.60;;
16998;SDS011;10211;49.476;11.010;2023-01-10T13:06:28;4.03;;;1.10;;
16998;SDS011;10211;49.476;11.010;2023-01-10T13:08:57;7.57;;;1.87;;
16998;SDS011;10211;49.476;11.010;2023-01-10T13:11:31;4.10;;;1.50;;
16998;SDS011;10211;49.476;11.010;2023-01-10T13:14:06;6.87;;;1.63;;
16998;SDS011;10211;49.476;11.010;2023-01-10T13:16:41;9.73;;;2.10;;
16998;SDS011;10211;49.476;11.010;2023-01-10T13:19:21;4.33;;;1.27;;
16998;SDS011;10211;49.476;11.010;2023-01-10T13:21:49;6.50;;;1.67;;
16998;SDS011;10211;49.476;11.010;2023-01-10T13:24:36;7.63;;;1.50;;
16998;SDS011;10211;49.476;11.010;2023-01-10T13:27:05;4.33;;;1.50;;
16998;SDS011;10211;49.476;11.010;2023-01-10T13:29:42;4.83;;;1.33;;
16998;SDS011;10211;49.476;11.010;2023-01-10T13:32:15;7.53;;;1.50;;
16998;SDS011;10211;49.476;11.010;2023-01-10T13:34:46;8.20;;;2.00;;
16998;SDS011;10211;49.476;11.010;2023-01-10T13:37:17;3.43;;;1.37;;
16998;SDS011;10211;49.476;11.010;2023-01-10T13:39:50;6.53;;;2.80;;
16998;SDS011;10211;49.476;11.010;2023-01-10T13:42:25;6.20;;;1.57;;
16998;SDS011;10211;49.476;11.010;2023-01-10T13:45:23;12.37;;;1.87;;
16998;SDS011;10211;49.476;11.010;2023-01-10T13:48:02;7.37;;;1.70;;
16998;SDS011;10211;49.476;11.010;2023-01-10T13:53:50;5.63;;;2.20;;
16998;SDS011;10211;49.476;11.010;2023-01-10T13:56:37;3.23;;;1.60;;
16998;SDS011;10211;49.476;11.010;2023-01-10T13:59:11;5.70;;;1.70;;
16998;SDS011;10211;49.476;11.010;2023-01-10T14:01:57;3.37;;;1.43;;
16998;SDS011;10211;49.476;11.010;2023-01-10T14:04:47;3.67;;;2.17;;
16998;SDS011;10211;49.476;11.010;2023-01-10T14:07:21;4.83;;;1.27;;
16998;SDS011;10211;49.476;11.010;2023-01-10T14:09:57;7.50;;;1.53;;
16998;SDS011;10211;49.476;11.010;2023-01-10T14:12:28;4.93;;;1.83;;
16998;SDS011;10211;49.476;11.010;2023-01-10T14:15:02;4.40;;;1.33;;
16998;SDS011;10211;49.476;11.010;2023-01-10T14:17:32;2.80;;;1.40;;
16998;SDS011;10211;49.476;11.010;2023-01-10T14:20:13;6.33;;;1.23;;
16998;SDS011;10211;49.476;11.010;2023-01-10T14:25:28;9.10;;;1.50;;
16998;SDS011;10211;49.476;11.010;2023-01-10T14:27:57;7.47;;;1.53;;
16998;SDS011;10211;49.476;11.010;2023-01-10T14:30:28;2.97;;;1.07;;
16998;SDS011;10211;49.476;11.010;2023-01-10T14:32:58;6.30;;;1.67;;
16998;SDS011;10211;49.476;11.010;2023-01-10T14:35:29;6.63;;;2.40;;
16998;SDS011;10211;49.476;11.010;2023-01-10T14:38:00;4.80;;;1.73;;
16998;SDS011;10211;49.476;11.010;2023-01-10T14:40:28;5.90;;;1.77;;
16998;SDS011;10211;49.476;11.010;2023-01-10T14:43:02;9.33;;;1.63;;
16998;SDS011;10211;49.476;11.010;2023-01-10T14:45:35;3.63;;;1.00;;
16998;SDS011;10211;49.476;11.010;2023-01-10T14:51:14;2.63;;;1.10;;
16998;SDS011;10211;49.476;11.010;2023-01-10T14:53:45;9.63;;;2.03;;
16998;SDS011;10211;49.476;11.010;2023-01-10T14:56:19;7.23;;;1.90;;
16998;SDS011;10211;49.476;11.010;2023-01-10T14:58:47;3.73;;;1.07;;
16998;SDS011;10211;49.476;11.010;2023-01-10T15:01:16;4.27;;;1.13;;
16998;SDS011;10211;49.476;11.010;2023-01-10T15:03:47;5.00;;;1.50;;
16998;SDS011;10211;49.476;11.010;2023-01-10T15:06:14;8.30;;;1.80;;
16998;SDS011;10211;49.476;11.010;2023-01-10T15:08:41;6.73;;;1.97;;
16998;SDS011;10211;49.476;11.010;2023-01-10T15:11:08;8.20;;;2.13;;
16998;SDS011;10211;49.476;11.010;2023-01-10T15:13:40;7.37;;;2.50;;